MMMX/MEX METAR and TAF weather

Enter ICAO airport designator
Station Type Date Time Source
MMMX METAR 2019/07/15 19:51 UTC NOAA

MMMX 151951Z 04006KT 6SM SCT020 24/12 A3028 NOSIG RMK 8/200 HZY TCU SE S SW


Station Type Date Time Source
MMMX Decoded METAR 2019/07/15 19:51 UTC NOAA

Mexico City / Licenci, Mexico (MMMX) 19-26N 099-06W
Jul 15, 2019 - 03:51 PM EDT / 2019.07.15 1951 UTC
Wind: from the NE (040 degrees) at 7 MPH (6 KT):0
Visibility: 6 mile(s):0
Sky conditions: partly cloudy
Weather: Towering cumulus clouds observed
Temperature: 75 F (24 C)
Dew Point: 53 F (12 C)
Relative Humidity: 46%
Pressure (altimeter): 30.28 in. Hg (1025 hPa)
ob: MMMX 151951Z 04006KT 6SM SCT020 24/12 A3028 NOSIG RMK 8/200 HZY TCU SE S SW
cycle: 20

Station Type Date Time Source
MMMX TAF 2019/07/15 18:03 UTC NOAA

TAF MMMX 151602Z 1518/1624 06005KT 5SM HZ SCT020 BKN200 TX25/1521Z TN15/1612Z
TEMPO 1523/1603 4SM TSRA BKN020CB
FM160300 13005KT P6SM SCT020 BKN080 BKN250
TEMPO 1610/1614 BKN020
FM161800 04010KT P6SM SCT020
TEMPO 1620/1624 5SM TSRA BKN020CB

Example: see airport list